createdAt,value
2023-06-17T00:02:24.741Z,16.60
2023-06-17T00:04:54.744Z,16.57
2023-06-17T00:07:24.186Z,16.55
2023-06-17T00:09:53.746Z,16.53
2023-06-17T00:12:24.011Z,16.49
2023-06-17T00:14:54.301Z,16.47
2023-06-17T00:17:25.725Z,16.42
2023-06-17T00:19:57.840Z,16.38
2023-06-17T00:22:31.297Z,16.35
2023-06-17T00:25:01.565Z,16.36
2023-06-17T00:27:32.168Z,16.35
2023-06-17T00:30:02.516Z,16.38
2023-06-17T00:32:33.902Z,16.41
2023-06-17T00:35:13.454Z,16.45
2023-06-17T00:37:44.605Z,16.48
2023-06-17T00:40:15.162Z,16.51
2023-06-17T00:42:43.389Z,16.58
2023-06-17T00:45:12.831Z,16.63
2023-06-17T00:47:44.694Z,16.66
2023-06-17T00:50:16.070Z,16.62
2023-06-17T00:52:48.189Z,16.50
2023-06-17T00:55:15.892Z,16.39
2023-06-17T00:57:48.262Z,16.28
2023-06-17T01:00:20.842Z,16.18
2023-06-17T01:02:50.968Z,16.08
2023-06-17T01:05:21.311Z,16.04
2023-06-17T01:08:00.732Z,16.01
2023-06-17T01:10:39.566Z,15.99
2023-06-17T01:13:08.935Z,15.97
2023-06-17T01:18:10.464Z,15.90
2023-06-17T01:20:43.431Z,15.89
2023-06-17T01:23:15.718Z,15.88
2023-06-17T01:25:46.833Z,15.89
2023-06-17T01:28:20.609Z,15.88
2023-06-17T01:30:50.069Z,15.91
2023-06-17T01:33:21.398Z,15.94
2023-06-17T01:36:11.778Z,15.96
2023-06-17T01:38:45.417Z,16.02
2023-06-17T01:41:16.563Z,16.10
2023-06-17T01:43:46.409Z,16.17
2023-06-17T01:46:15.792Z,16.24
2023-06-17T01:48:46.689Z,16.29
2023-06-17T01:51:15.920Z,16.32
2023-06-17T01:53:50.065Z,16.35
2023-06-17T01:56:18.801Z,16.38
2023-06-17T01:58:50.616Z,16.41
2023-06-17T02:01:19.105Z,16.42
2023-06-17T02:03:48.825Z,16.43
2023-06-17T02:06:19.210Z,16.45
2023-06-17T02:08:50.354Z,16.47
2023-06-17T02:11:20.494Z,16.49
2023-06-17T02:13:49.954Z,16.52
2023-06-17T02:16:20.269Z,16.53
2023-06-17T02:18:49.600Z,16.56
2023-06-17T02:21:20.082Z,16.57
2023-06-17T02:23:50.420Z,16.58
2023-06-17T02:26:19.929Z,16.59
2023-06-17T02:28:54.222Z,16.60
2023-06-17T02:31:24.558Z,16.61
2023-06-17T02:33:53.736Z,16.62
2023-06-17T02:36:23.050Z,16.61
2023-06-17T02:38:54.535Z,16.61
2023-06-17T02:41:25.030Z,16.58
2023-06-17T02:43:56.645Z,16.55
2023-06-17T02:46:29.648Z,16.53
2023-06-17T02:48:58.600Z,16.48
2023-06-17T02:51:30.083Z,16.36
2023-06-17T02:53:59.632Z,16.29
2023-06-17T02:56:34.712Z,16.22
2023-06-17T02:59:09.340Z,16.17
2023-06-17T03:01:40.171Z,16.13
2023-06-17T03:04:14.524Z,16.11
2023-06-17T03:06:45.353Z,16.09
2023-06-17T03:09:15.048Z,16.06
2023-06-17T03:11:46.940Z,16.00
2023-06-17T03:14:20.223Z,15.96
2023-06-17T03:16:52.288Z,15.90
2023-06-17T03:19:23.267Z,15.89
2023-06-17T03:21:51.867Z,15.91
2023-06-17T03:24:22.689Z,15.92
2023-06-17T03:26:54.617Z,15.90
2023-06-17T03:29:28.206Z,15.87
2023-06-17T03:31:58.002Z,15.83
2023-06-17T03:34:32.014Z,15.79
2023-06-17T03:37:01.471Z,15.78
2023-06-17T03:39:31.434Z,15.76
2023-06-17T03:41:59.306Z,15.74
2023-06-17T03:44:30.979Z,15.72
2023-06-17T03:47:00.913Z,15.72
2023-06-17T03:49:32.954Z,15.71
2023-06-17T03:52:02.679Z,15.70
2023-06-17T03:54:34.404Z,15.70
2023-06-17T03:57:03.241Z,15.76
2023-06-17T03:59:36.221Z,15.82
2023-06-17T04:02:07.573Z,15.88
2023-06-17T04:04:36.276Z,15.94
2023-06-17T04:07:05.272Z,15.98
2023-06-17T04:09:35.614Z,16.02
2023-06-17T04:12:06.707Z,16.06
2023-06-17T04:14:39.706Z,16.09
2023-06-17T04:17:09.558Z,16.09
2023-06-17T04:19:39.523Z,16.10
2023-06-17T04:22:10.097Z,16.10
2023-06-17T04:24:39.702Z,16.06
2023-06-17T04:27:11.488Z,15.99
2023-06-17T04:29:39.372Z,15.94
2023-06-17T04:32:11.250Z,15.89
2023-06-17T04:34:43.598Z,15.83
2023-06-17T04:37:14.303Z,15.78
2023-06-17T04:39:44.759Z,15.79
2023-06-17T04:42:16.126Z,15.82
2023-06-17T04:44:51.045Z,15.85
2023-06-17T04:47:20.610Z,15.87
2023-06-17T04:49:53.407Z,15.87
2023-06-17T04:52:26.941Z,15.88
2023-06-17T04:54:57.935Z,15.87
2023-06-17T04:57:31.002Z,15.87
2023-06-17T05:00:03.403Z,15.83
2023-06-17T05:02:34.426Z,15.81
2023-06-17T05:05:04.223Z,15.81
2023-06-17T05:07:33.336Z,15.86
2023-06-17T05:10:04.612Z,15.89
2023-06-17T05:12:37.085Z,15.93
2023-06-17T05:15:15.622Z,15.97
2023-06-17T05:17:55.027Z,16.00
2023-06-17T05:20:32.092Z,16.06
2023-06-17T05:23:03.464Z,16.12
2023-06-17T05:25:34.591Z,16.18
2023-06-17T05:28:08.067Z,16.25
2023-06-17T05:30:44.433Z,16.26
2023-06-17T05:33:17.697Z,16.27
2023-06-17T05:35:50.734Z,16.31
2023-06-17T05:38:36.838Z,16.33
2023-06-17T05:41:15.499Z,16.37
2023-06-17T05:43:47.709Z,16.40
2023-06-17T05:46:22.321Z,16.45
2023-06-17T05:48:55.185Z,16.49
2023-06-17T05:51:30.803Z,16.52
2023-06-17T05:54:09.964Z,16.55
2023-06-17T05:56:52.133Z,16.60
2023-06-17T05:59:30.787Z,16.63
2023-06-17T06:02:22.092Z,16.67
2023-06-17T06:05:08.320Z,16.75
2023-06-17T06:11:20.051Z,16.93
2023-06-17T06:14:00.344Z,17.01
2023-06-17T06:16:39.741Z,17.11
2023-06-17T06:19:16.846Z,17.25
2023-06-17T06:21:51.817Z,17.40
2023-06-17T06:24:37.168Z,17.54
2023-06-17T06:27:16.182Z,17.71
2023-06-17T06:29:53.160Z,17.83
2023-06-17T06:32:32.936Z,17.97
2023-06-17T06:35:21.200Z,18.16
2023-06-17T06:38:06.740Z,18.31
2023-06-17T06:40:49.425Z,18.46
2023-06-17T06:43:33.323Z,18.62
2023-06-17T06:46:23.609Z,18.81
2023-06-17T06:49:04.314Z,18.96
2023-06-17T06:51:45.888Z,19.12
2023-06-17T06:54:30.698Z,19.26
2023-06-17T06:57:14.505Z,19.40
2023-06-17T06:59:56.466Z,19.58
2023-06-17T07:02:41.220Z,19.82
2023-06-17T07:09:25.628Z,20.27
2023-06-17T07:16:12.341Z,20.87
2023-06-17T07:18:50.397Z,21.01
2023-06-17T07:21:37.336Z,21.05
2023-06-17T07:24:09.669Z,21.22
2023-06-17T07:26:45.545Z,21.42
2023-06-17T07:29:22.217Z,21.65
2023-06-17T07:32:03.684Z,21.88
2023-06-17T07:35:16.515Z,22.03
2023-06-17T07:38:09.030Z,22.28
2023-06-17T07:40:54.023Z,22.53
2023-06-17T07:43:37.274Z,22.65
2023-06-17T07:46:32.884Z,22.91
2023-06-17T07:49:16.593Z,23.44
2023-06-17T07:52:15.114Z,23.80
2023-06-17T07:54:57.944Z,24.38
2023-06-17T07:57:33.357Z,24.89
2023-06-17T08:00:29.406Z,25.36
2023-06-17T08:03:08.054Z,26.29
2023-06-17T08:05:47.999Z,26.77
2023-06-17T08:08:32.505Z,26.99
2023-06-17T08:15:16.122Z,27.77
2023-06-17T08:17:55.956Z,28.20
2023-06-17T08:20:33.463Z,30.40
2023-06-17T08:23:14.412Z,32.54
2023-06-17T08:25:57.621Z,34.34
2023-06-17T08:28:47.468Z,35.37
2023-06-17T08:31:37.547Z,34.42
2023-06-17T08:34:34.397Z,34.10
2023-06-17T08:37:40.473Z,33.52
2023-06-17T08:40:40.102Z,33.21
2023-06-17T08:43:34.489Z,33.89
2023-06-17T08:46:20.208Z,33.92
2023-06-17T08:49:06.177Z,32.91
2023-06-17T08:51:50.583Z,31.76
2023-06-17T08:54:50.000Z,30.94
2023-06-17T08:57:50.304Z,30.17
2023-06-17T09:00:46.624Z,30.07
2023-06-17T09:03:53.266Z,30.05
2023-06-17T09:06:57.390Z,29.70
2023-06-17T09:10:03.229Z,28.97
2023-06-17T09:12:43.237Z,28.30
2023-06-17T09:15:30.528Z,27.72
2023-06-17T09:18:20.429Z,27.02
2023-06-17T09:21:21.812Z,26.53
2023-06-17T09:24:09.052Z,26.08
2023-06-17T09:27:01.197Z,25.75
2023-06-17T09:30:25.104Z,25.50
2023-06-17T09:33:39.686Z,25.39
2023-06-17T09:37:02.494Z,25.32
2023-06-17T09:40:12.194Z,25.25
2023-06-17T09:43:27.639Z,25.05
2023-06-17T09:46:52.954Z,24.83
2023-06-17T09:49:45.862Z,24.67
2023-06-17T09:52:40.923Z,24.54
2023-06-17T09:55:35.970Z,24.30
2023-06-17T09:58:21.499Z,23.82
2023-06-17T10:01:10.782Z,23.36
2023-06-17T10:04:11.070Z,22.78
2023-06-17T10:07:00.776Z,22.33
2023-06-17T10:09:44.519Z,21.86
2023-06-17T10:16:53.842Z,21.21
2023-06-17T10:20:30.254Z,21.26
2023-06-17T10:23:44.355Z,21.51
2023-06-17T10:30:20.054Z,21.94
2023-06-17T10:33:15.870Z,22.45
2023-06-17T10:36:21.136Z,23.52
2023-06-17T10:39:14.696Z,24.70
2023-06-17T10:42:02.130Z,25.41
2023-06-17T10:44:52.817Z,25.76
2023-06-17T10:47:34.836Z,25.98
2023-06-17T10:50:19.333Z,25.78
2023-06-17T10:53:11.323Z,25.30
2023-06-17T10:55:56.651Z,25.19
2023-06-17T10:58:54.897Z,25.21
2023-06-17T11:02:22.525Z,25.11
2023-06-17T11:05:29.204Z,25.30
2023-06-17T11:08:30.127Z,25.53
2023-06-17T11:12:10.820Z,25.94
2023-06-17T11:15:26.923Z,26.84
2023-06-17T11:18:23.202Z,27.65
2023-06-17T11:21:17.220Z,27.88
2023-06-17T11:24:40.857Z,28.03
2023-06-17T11:27:45.290Z,27.92
2023-06-17T11:30:53.103Z,27.85
2023-06-17T11:34:25.021Z,28.25
2023-06-17T11:37:30.489Z,28.58
2023-06-17T11:40:36.657Z,28.73
2023-06-17T11:43:36.913Z,28.79
2023-06-17T11:46:51.053Z,28.54
2023-06-17T11:49:55.914Z,28.46
2023-06-17T11:53:03.083Z,28.44
2023-06-17T11:55:58.865Z,28.52
2023-06-17T11:58:59.520Z,28.69
2023-06-17T12:01:46.812Z,28.64
2023-06-17T12:04:29.875Z,28.77
2023-06-17T12:07:21.273Z,29.08
2023-06-17T12:10:07.099Z,29.13
2023-06-17T12:13:28.484Z,29.40
2023-06-17T12:16:32.618Z,29.50
2023-06-17T12:19:36.492Z,29.40
2023-06-17T12:22:27.063Z,29.66
2023-06-17T12:25:29.974Z,29.76
2023-06-17T12:28:44.504Z,29.07
2023-06-17T12:31:49.639Z,29.06
2023-06-17T12:34:44.640Z,29.27
2023-06-17T12:37:49.535Z,29.39
2023-06-17T12:40:49.678Z,29.57
2023-06-17T12:43:18.078Z,29.80
2023-06-17T12:45:48.364Z,29.95
2023-06-17T12:48:17.705Z,29.94
2023-06-17T12:50:45.786Z,29.99
2023-06-17T12:53:14.230Z,29.99
2023-06-17T12:55:43.664Z,29.99
2023-06-17T12:58:12.825Z,30.02
2023-06-17T13:00:45.241Z,30.09
2023-06-17T13:03:14.028Z,30.14
2023-06-17T13:05:44.549Z,30.17
2023-06-17T13:08:15.007Z,30.20
2023-06-17T13:10:45.273Z,30.21
2023-06-17T13:13:13.260Z,30.29
2023-06-17T13:20:01.381Z,30.19
2023-06-17T13:22:30.752Z,30.07
2023-06-17T13:25:00.468Z,30.14
2023-06-17T13:27:32.016Z,30.19
2023-06-17T13:30:14.004Z,29.91
2023-06-17T13:32:41.849Z,29.75
2023-06-17T13:35:13.726Z,29.28
2023-06-17T13:38:10.963Z,28.52
2023-06-17T13:40:43.130Z,28.10
2023-06-17T13:43:41.325Z,28.08
2023-06-17T13:46:14.151Z,28.40
2023-06-17T13:48:42.155Z,28.64
2023-06-17T13:51:12.256Z,28.91
2023-06-17T13:53:41.290Z,29.16
2023-06-17T13:56:09.354Z,29.42
2023-06-17T13:58:38.434Z,29.45
2023-06-17T14:01:09.355Z,29.42
2023-06-17T14:03:40.637Z,29.71
2023-06-17T14:06:10.634Z,30.01
2023-06-17T14:08:41.718Z,30.08
2023-06-17T14:11:14.489Z,30.03
2023-06-17T14:13:45.839Z,30.07
2023-06-17T14:16:13.967Z,30.21
2023-06-17T14:18:44.348Z,30.07
2023-06-17T14:21:31.431Z,29.69
2023-06-17T14:24:06.618Z,29.19
2023-06-17T14:26:34.832Z,28.62
2023-06-17T14:29:02.692Z,28.70
2023-06-17T14:31:31.246Z,28.71
2023-06-17T14:34:02.424Z,28.89
2023-06-17T14:36:30.770Z,29.22
2023-06-17T14:39:00.545Z,29.37
2023-06-17T14:41:33.493Z,29.19
2023-06-17T14:44:03.112Z,29.18
2023-06-17T14:46:32.516Z,29.26
2023-06-17T14:49:00.770Z,29.28
2023-06-17T14:51:28.770Z,29.36
2023-06-17T14:53:59.165Z,29.48
2023-06-17T14:56:30.210Z,29.57
2023-06-17T14:58:58.505Z,29.61
2023-06-17T15:01:32.866Z,29.68
2023-06-17T15:04:01.155Z,29.71
2023-06-17T15:06:38.696Z,29.50
2023-06-17T15:09:23.612Z,29.50
2023-06-17T15:11:54.795Z,29.47
2023-06-17T15:14:22.703Z,29.45
2023-06-17T15:16:52.320Z,29.26
2023-06-17T15:19:21.536Z,29.05
2023-06-17T15:21:52.850Z,29.01
2023-06-17T15:24:21.702Z,28.95
2023-06-17T15:26:49.297Z,28.94
2023-06-17T15:29:16.822Z,28.81
2023-06-17T15:31:45.123Z,28.71
2023-06-17T15:34:14.123Z,28.68
2023-06-17T15:36:47.669Z,28.65
2023-06-17T15:39:24.080Z,28.68
2023-06-17T15:41:54.011Z,28.67
2023-06-17T15:44:23.784Z,28.58
2023-06-17T15:46:51.696Z,28.52
2023-06-17T15:49:19.291Z,28.48
2023-06-17T15:51:47.292Z,28.45
2023-06-17T15:54:14.728Z,28.25
2023-06-17T15:56:46.946Z,28.18
2023-06-17T15:59:16.103Z,28.21
2023-06-17T16:01:45.399Z,28.18
2023-06-17T16:04:33.230Z,28.02
2023-06-17T16:07:03.408Z,27.73
2023-06-17T16:12:39.261Z,27.39
2023-06-17T16:15:10.888Z,27.32
2023-06-17T16:17:40.386Z,27.20
2023-06-17T16:20:11.869Z,27.01
2023-06-17T16:22:40.686Z,26.82
2023-06-17T16:25:11.149Z,26.67
2023-06-17T16:27:39.232Z,26.51
2023-06-17T16:30:07.630Z,26.39
2023-06-17T16:32:35.533Z,26.26
2023-06-17T16:35:03.868Z,26.18
2023-06-17T16:37:31.743Z,25.98
2023-06-17T16:40:02.763Z,25.83
2023-06-17T16:45:30.868Z,25.74
2023-06-17T16:47:59.027Z,25.70
2023-06-17T16:50:27.167Z,25.63
2023-06-17T16:52:55.586Z,25.58
2023-06-17T16:55:24.868Z,25.54
2023-06-17T16:57:53.059Z,25.46
2023-06-17T17:00:27.776Z,25.41
2023-06-17T17:02:56.273Z,25.33
2023-06-17T17:05:26.747Z,25.24
2023-06-17T17:07:57.199Z,25.13
2023-06-17T17:10:26.794Z,24.95
2023-06-17T17:12:55.862Z,24.78
2023-06-17T17:15:26.268Z,24.65
2023-06-17T17:17:55.104Z,24.59
2023-06-17T17:20:23.465Z,24.55
2023-06-17T17:22:53.697Z,24.50
2023-06-17T17:25:22.533Z,24.44
2023-06-17T17:27:51.875Z,24.34
2023-06-17T17:30:20.569Z,24.25
2023-06-17T17:32:49.868Z,24.18
2023-06-17T17:35:20.128Z,24.08
2023-06-17T17:37:48.860Z,24.00
2023-06-17T17:40:17.495Z,23.89
2023-06-17T17:42:46.946Z,23.74
2023-06-17T17:45:16.775Z,23.50
2023-06-17T17:47:45.389Z,23.32
2023-06-17T17:50:14.101Z,23.23
2023-06-17T17:52:42.205Z,23.16
2023-06-17T17:55:10.526Z,23.09
2023-06-17T17:57:39.497Z,22.98
2023-06-17T18:00:13.789Z,22.83
2023-06-17T18:02:44.623Z,22.75
2023-06-17T18:05:12.194Z,22.68
2023-06-17T18:07:41.952Z,22.64
2023-06-17T18:10:09.628Z,22.56
2023-06-17T18:12:39.451Z,22.51
2023-06-17T18:15:09.165Z,22.46
2023-06-17T18:17:37.317Z,22.37
2023-06-17T18:20:05.841Z,22.27
2023-06-17T18:22:35.176Z,22.16
2023-06-17T18:25:13.173Z,22.02
2023-06-17T18:27:42.285Z,21.90
2023-06-17T18:30:12.878Z,21.78
2023-06-17T18:32:40.780Z,21.66
2023-06-17T18:35:08.385Z,21.55
2023-06-17T18:37:36.055Z,21.42
2023-06-17T18:40:05.903Z,21.31
2023-06-17T18:42:34.839Z,21.22
2023-06-17T18:45:02.775Z,21.08
2023-06-17T18:47:31.622Z,20.90
2023-06-17T18:50:02.419Z,20.71
2023-06-17T18:52:32.428Z,20.61
2023-06-17T18:55:01.645Z,20.53
2023-06-17T18:57:30.718Z,20.41
2023-06-17T18:59:59.240Z,20.27
2023-06-17T19:02:30.852Z,20.19
2023-06-17T19:05:00.975Z,20.09
2023-06-17T19:07:28.538Z,19.98
2023-06-17T19:09:57.256Z,19.87
2023-06-17T19:12:30.542Z,19.75
2023-06-17T19:14:59.097Z,19.65
2023-06-17T19:17:27.269Z,19.55
2023-06-17T19:19:54.740Z,19.47
2023-06-17T19:22:24.741Z,19.38
2023-06-17T19:24:53.249Z,19.22
2023-06-17T19:27:24.817Z,19.08
2023-06-17T19:30:03.022Z,18.90
2023-06-17T19:32:31.194Z,18.73
2023-06-17T19:35:00.766Z,18.58
2023-06-17T19:37:29.526Z,18.49
2023-06-17T19:39:58.706Z,18.43
2023-06-17T19:42:30.346Z,18.38
2023-06-17T19:44:58.167Z,18.32
2023-06-17T19:47:27.247Z,18.27
2023-06-17T19:49:57.591Z,18.25
2023-06-17T19:52:26.000Z,18.21
2023-06-17T19:54:54.948Z,18.15
2023-06-17T19:57:25.017Z,18.09
2023-06-17T19:59:54.428Z,18.05
2023-06-17T20:02:22.413Z,18.00
2023-06-17T20:04:50.121Z,17.97
2023-06-17T20:07:19.043Z,17.89
2023-06-17T20:09:49.415Z,17.80
2023-06-17T20:12:17.215Z,17.73
2023-06-17T20:14:45.351Z,17.72
2023-06-17T20:17:16.182Z,17.73
2023-06-17T20:19:44.558Z,17.72
2023-06-17T20:22:12.457Z,17.71
2023-06-17T20:24:40.803Z,17.68
2023-06-17T20:27:09.367Z,17.65
2023-06-17T20:29:37.676Z,17.65
2023-06-17T20:32:06.942Z,17.68
2023-06-17T20:34:35.535Z,17.65
2023-06-17T20:37:06.138Z,17.54
2023-06-17T20:39:33.711Z,17.50
2023-06-17T20:42:01.495Z,17.48
2023-06-17T20:44:31.284Z,17.49
2023-06-17T20:47:01.255Z,17.50
2023-06-17T20:49:33.005Z,17.51
2023-06-17T20:52:00.718Z,17.54
2023-06-17T20:54:30.055Z,17.55
2023-06-17T20:57:00.203Z,17.55
2023-06-17T20:59:29.182Z,17.55
2023-06-17T21:01:58.589Z,17.54
2023-06-17T21:04:26.514Z,17.45
2023-06-17T21:06:55.398Z,17.28
2023-06-17T21:09:26.623Z,17.06
2023-06-17T21:11:56.416Z,16.84
2023-06-17T21:14:28.560Z,16.69
2023-06-17T21:16:57.088Z,16.58
2023-06-17T21:19:26.275Z,16.56
2023-06-17T21:21:53.924Z,16.51
2023-06-17T21:24:23.036Z,16.42
2023-06-17T21:26:52.632Z,16.43
2023-06-17T21:29:22.844Z,16.48
2023-06-17T21:31:50.527Z,16.50
2023-06-17T21:34:19.112Z,16.54
2023-06-17T21:36:51.739Z,16.59
2023-06-17T21:39:20.265Z,16.58
2023-06-17T21:41:48.562Z,16.52
2023-06-17T21:44:16.410Z,16.45
2023-06-17T21:46:44.448Z,16.42
2023-06-17T21:49:13.164Z,16.39
2023-06-17T21:51:41.065Z,16.38
2023-06-17T21:54:10.095Z,16.30
2023-06-17T21:56:39.500Z,16.20
2023-06-17T21:59:08.606Z,16.12
2023-06-17T22:01:38.999Z,16.08
2023-06-17T22:04:09.592Z,16.09
2023-06-17T22:06:40.810Z,16.13
2023-06-17T22:09:11.903Z,16.13
2023-06-17T22:11:41.856Z,16.09
2023-06-17T22:14:11.291Z,16.00
2023-06-17T22:16:39.388Z,15.87
2023-06-17T22:19:09.174Z,15.76
2023-06-17T22:21:38.889Z,15.69
2023-06-17T22:24:06.713Z,15.59
2023-06-17T22:26:34.712Z,15.53
2023-06-17T22:29:08.723Z,15.54
2023-06-17T22:31:40.489Z,15.54
2023-06-17T22:34:15.503Z,15.56
2023-06-17T22:36:52.265Z,15.59
2023-06-17T22:39:20.773Z,15.64
2023-06-17T22:41:51.319Z,15.67
2023-06-17T22:44:20.314Z,15.70
2023-06-17T22:46:49.791Z,15.71
2023-06-17T22:49:18.330Z,15.72
2023-06-17T22:51:46.475Z,15.66
2023-06-17T22:54:19.144Z,15.61
2023-06-17T22:56:47.687Z,15.55
2023-06-17T22:59:17.691Z,15.56
2023-06-17T23:01:45.583Z,15.55
2023-06-17T23:04:19.027Z,15.49
2023-06-17T23:06:53.457Z,15.41
2023-06-17T23:09:23.132Z,15.37
2023-06-17T23:11:52.231Z,15.28
2023-06-17T23:14:19.881Z,15.25
2023-06-17T23:16:50.997Z,15.21
2023-06-17T23:19:19.479Z,15.16
2023-06-17T23:21:49.308Z,15.17
2023-06-17T23:24:17.527Z,15.26
2023-06-17T23:26:45.704Z,15.35
2023-06-17T23:29:14.207Z,15.41
2023-06-17T23:31:41.895Z,15.44
2023-06-17T23:34:09.798Z,15.51
2023-06-17T23:36:40.443Z,15.53
2023-06-17T23:39:11.394Z,15.55
2023-06-17T23:41:41.014Z,15.57
2023-06-17T23:44:09.111Z,15.46
2023-06-17T23:46:39.154Z,15.40
2023-06-17T23:49:09.386Z,15.35
2023-06-17T23:51:38.210Z,15.31
2023-06-17T23:54:07.513Z,15.34
2023-06-17T23:56:35.549Z,15.40
2023-06-17T23:59:06.214Z,15.42
